createdAt,value
2022-09-16T00:01:13.917Z,2.05
2022-09-16T00:03:43.914Z,2.03
2022-09-16T00:06:20.391Z,2.00
2022-09-16T00:08:49.603Z,2.10
2022-09-16T00:11:18.206Z,1.75
2022-09-16T00:13:47.478Z,2.33
2022-09-16T00:16:20.816Z,2.75
2022-09-16T00:18:54.526Z,2.10
2022-09-16T00:21:23.179Z,2.13
2022-09-16T00:23:51.594Z,1.58
2022-09-16T00:26:19.895Z,2.03
2022-09-16T00:28:50.052Z,2.50
2022-09-16T00:31:18.780Z,2.35
2022-09-16T00:33:47.195Z,2.63
2022-09-16T00:36:18.731Z,2.33
2022-09-16T00:38:47.205Z,2.30
2022-09-16T00:41:19.490Z,2.70
2022-09-16T00:43:50.303Z,2.85
2022-09-16T00:46:21.017Z,2.85
2022-09-16T00:48:49.726Z,3.22
2022-09-16T00:51:22.282Z,3.00
2022-09-16T00:53:57.107Z,3.15
2022-09-16T00:56:27.923Z,3.28
2022-09-16T00:59:03.350Z,2.67
2022-09-16T01:01:31.978Z,3.03
2022-09-16T01:04:04.433Z,2.88
2022-09-16T01:06:38.409Z,2.85
2022-09-16T01:09:07.583Z,2.47
2022-09-16T01:11:35.865Z,3.60
2022-09-16T01:14:19.254Z,2.65
2022-09-16T01:16:51.803Z,2.78
2022-09-16T01:19:35.773Z,2.83
2022-09-16T01:22:14.894Z,2.53
2022-09-16T01:24:53.452Z,2.33
2022-09-16T01:27:54.730Z,1.98
2022-09-16T01:30:47.954Z,2.60
2022-09-16T01:33:24.767Z,3.00
2022-09-16T01:36:08.560Z,3.03
2022-09-16T01:39:02.480Z,2.78
2022-09-16T01:41:40.889Z,2.92
2022-09-16T01:44:21.835Z,2.88
2022-09-16T01:47:00.778Z,2.92
2022-09-16T01:49:37.329Z,2.92
2022-09-16T01:52:14.270Z,3.10
2022-09-16T01:54:45.787Z,3.38
2022-09-16T01:57:19.548Z,3.40
2022-09-16T01:59:52.168Z,2.33
2022-09-16T02:02:27.316Z,2.92
2022-09-16T02:04:58.157Z,2.67
2022-09-16T02:07:31.216Z,3.00
2022-09-16T02:10:07.764Z,3.10
2022-09-16T02:12:40.493Z,2.45
2022-09-16T02:15:11.787Z,3.38
2022-09-16T02:17:47.801Z,3.40
2022-09-16T02:20:18.985Z,3.05
2022-09-16T02:22:52.726Z,3.38
2022-09-16T02:25:22.067Z,3.92
2022-09-16T02:27:52.314Z,3.65
2022-09-16T02:30:23.159Z,3.20
2022-09-16T02:32:59.831Z,3.45
2022-09-16T02:35:29.561Z,3.45
2022-09-16T02:38:00.800Z,3.67
2022-09-16T02:40:32.443Z,3.15
2022-09-16T02:43:01.245Z,3.97
2022-09-16T02:45:41.933Z,3.28
2022-09-16T02:48:20.676Z,3.78
2022-09-16T02:50:54.751Z,4.03
2022-09-16T02:53:29.226Z,4.00
2022-09-16T02:56:03.604Z,3.67
2022-09-16T02:58:31.886Z,3.83
2022-09-16T03:01:00.609Z,3.03
2022-09-16T03:03:30.478Z,4.03
2022-09-16T03:06:20.248Z,4.03
2022-09-16T03:08:49.575Z,3.17
2022-09-16T03:11:50.603Z,3.78
2022-09-16T03:14:42.270Z,4.38
2022-09-16T03:17:21.650Z,3.60
2022-09-16T03:20:00.607Z,4.38
2022-09-16T03:22:39.160Z,4.25
2022-09-16T03:25:18.312Z,3.97
2022-09-16T03:27:53.545Z,4.68
2022-09-16T03:30:22.177Z,4.32
2022-09-16T03:32:56.080Z,4.32
2022-09-16T03:35:30.986Z,4.05
2022-09-16T03:38:00.854Z,3.67
2022-09-16T03:40:31.141Z,4.68
2022-09-16T03:42:59.579Z,4.63
2022-09-16T03:45:28.049Z,4.55
2022-09-16T03:47:56.315Z,4.95
2022-09-16T03:50:26.046Z,4.82
2022-09-16T03:52:54.211Z,4.82
2022-09-16T03:55:22.430Z,5.00
2022-09-16T03:57:50.623Z,4.43
2022-09-16T04:00:18.933Z,4.85
2022-09-16T04:02:47.240Z,5.35
2022-09-16T04:05:15.735Z,4.75
2022-09-16T04:07:45.559Z,4.35
2022-09-16T04:10:13.808Z,4.53
2022-09-16T04:12:42.219Z,4.63
2022-09-16T04:15:11.397Z,3.97
2022-09-16T04:17:39.653Z,5.20
2022-09-16T04:20:09.149Z,4.78
2022-09-16T04:22:37.373Z,5.05
2022-09-16T04:25:08.063Z,5.13
2022-09-16T04:27:36.472Z,4.68
2022-09-16T04:30:05.065Z,4.60
2022-09-16T04:32:33.235Z,4.60
2022-09-16T04:35:01.469Z,4.68
2022-09-16T04:37:32.550Z,4.90
2022-09-16T04:40:04.457Z,4.60
2022-09-16T04:42:34.759Z,4.50
2022-09-16T04:45:02.969Z,4.63
2022-09-16T04:47:31.642Z,4.68
2022-09-16T04:49:59.884Z,4.68
2022-09-16T04:52:28.328Z,5.03
2022-09-16T04:54:58.380Z,4.85
2022-09-16T04:57:26.670Z,5.18
2022-09-16T04:59:56.264Z,4.10
2022-09-16T05:02:24.510Z,3.90
2022-09-16T05:04:52.727Z,4.97
2022-09-16T05:07:20.979Z,4.00
2022-09-16T05:09:49.175Z,3.85
2022-09-16T05:12:17.416Z,3.78
2022-09-16T05:14:45.606Z,4.10
2022-09-16T05:17:33.160Z,3.83
2022-09-16T05:20:04.080Z,3.85
2022-09-16T05:22:32.270Z,3.35
2022-09-16T05:25:00.512Z,4.03
2022-09-16T05:27:32.073Z,3.63
2022-09-16T05:30:00.347Z,3.97
2022-09-16T05:32:30.340Z,3.75
2022-09-16T05:34:58.806Z,3.72
2022-09-16T05:37:28.353Z,4.18
2022-09-16T05:39:57.031Z,4.68
2022-09-16T05:42:25.330Z,4.28
2022-09-16T05:44:54.056Z,4.15
2022-09-16T05:47:22.316Z,3.38
2022-09-16T05:49:54.881Z,3.67
2022-09-16T05:52:25.675Z,3.03
2022-09-16T05:54:54.007Z,4.10
2022-09-16T05:57:23.956Z,3.97
2022-09-16T05:59:52.202Z,3.33
2022-09-16T06:02:20.459Z,3.55
2022-09-16T06:04:49.223Z,2.83
2022-09-16T06:07:18.857Z,2.75
2022-09-16T06:09:47.382Z,4.00
2022-09-16T06:12:15.648Z,3.50
2022-09-16T06:14:43.932Z,3.28
2022-09-16T06:17:12.306Z,3.25
2022-09-16T06:19:40.570Z,3.22
2022-09-16T06:22:08.766Z,3.35
2022-09-16T06:24:38.501Z,3.53
2022-09-16T06:27:06.844Z,4.20
2022-09-16T06:29:35.572Z,3.38
2022-09-16T06:32:04.137Z,3.53
2022-09-16T06:34:32.433Z,3.00
2022-09-16T06:37:00.693Z,3.08
2022-09-16T06:39:28.940Z,3.00
2022-09-16T06:41:58.665Z,3.25
2022-09-16T06:44:26.993Z,3.05
2022-09-16T06:46:55.102Z,3.38
2022-09-16T06:49:23.292Z,2.88
2022-09-16T06:51:51.752Z,3.10
2022-09-16T06:54:20.182Z,3.03
2022-09-16T06:56:48.453Z,3.42
2022-09-16T06:59:18.262Z,2.85
2022-09-16T07:01:46.616Z,2.85
2022-09-16T07:04:14.917Z,2.88
2022-09-16T07:07:08.167Z,2.90
2022-09-16T07:09:32.636Z,2.83
2022-09-16T07:12:01.581Z,2.83
2022-09-16T07:14:32.699Z,2.95
2022-09-16T07:17:01.702Z,2.08
2022-09-16T07:19:30.189Z,3.08
2022-09-16T07:21:58.869Z,2.90
2022-09-16T07:24:27.194Z,2.45
2022-09-16T07:26:55.420Z,3.20
2022-09-16T07:29:23.656Z,2.85
2022-09-16T07:31:53.308Z,2.53
2022-09-16T07:34:21.490Z,2.92
2022-09-16T07:36:50.780Z,2.13
2022-09-16T07:39:21.193Z,2.42
2022-09-16T07:41:49.708Z,2.00
2022-09-16T07:44:19.600Z,2.35
2022-09-16T07:46:48.258Z,2.13
2022-09-16T07:49:18.426Z,2.72
2022-09-16T07:51:46.981Z,2.50
2022-09-16T07:54:16.966Z,2.28
2022-09-16T07:56:45.962Z,1.85
2022-09-16T07:59:18.501Z,2.65
2022-09-16T08:01:48.357Z,2.33
2022-09-16T08:04:19.456Z,2.40
2022-09-16T08:06:47.933Z,2.08
2022-09-16T08:12:06.435Z,2.72
2022-09-16T08:14:34.962Z,2.22
2022-09-16T08:17:03.590Z,2.30
2022-09-16T08:19:33.244Z,2.85
2022-09-16T08:22:01.525Z,2.50
2022-09-16T08:24:29.826Z,2.35
2022-09-16T08:26:58.303Z,2.55
2022-09-16T08:29:27.343Z,2.30
2022-09-16T08:31:55.600Z,2.20
2022-09-16T08:34:24.068Z,2.65
2022-09-16T08:36:53.986Z,2.15
2022-09-16T08:39:22.304Z,2.30
2022-09-16T08:42:02.421Z,1.98
2022-09-16T08:44:40.224Z,2.38
2022-09-16T08:47:23.464Z,2.20
2022-09-16T08:49:53.293Z,2.38
2022-09-16T08:52:32.154Z,2.40
2022-09-16T08:55:03.743Z,1.90
2022-09-16T08:57:36.316Z,2.20
2022-09-16T09:00:09.148Z,1.88
2022-09-16T09:02:43.969Z,2.00
2022-09-16T09:05:18.899Z,2.05
2022-09-16T09:08:06.096Z,2.33
2022-09-16T09:10:42.736Z,2.38
2022-09-16T09:13:23.150Z,1.77
2022-09-16T09:15:59.141Z,1.85
2022-09-16T09:18:38.345Z,2.10
2022-09-16T09:21:20.434Z,2.20
2022-09-16T09:24:07.480Z,2.05
2022-09-16T09:26:43.323Z,1.92
2022-09-16T09:29:45.208Z,2.38
2022-09-16T09:32:22.335Z,1.92
2022-09-16T09:35:08.387Z,2.72
2022-09-16T09:37:50.444Z,2.25
2022-09-16T09:40:28.593Z,2.90
2022-09-16T09:43:05.251Z,2.50
2022-09-16T09:45:37.369Z,2.38
2022-09-16T09:48:17.128Z,3.25
2022-09-16T09:50:47.130Z,2.38
2022-09-16T09:53:20.822Z,3.00
2022-09-16T09:55:55.723Z,2.20
2022-09-16T09:58:29.956Z,2.55
2022-09-16T10:00:58.716Z,2.33
2022-09-16T10:03:28.701Z,3.22
2022-09-16T10:05:57.066Z,3.05
2022-09-16T10:08:30.177Z,2.40
2022-09-16T10:11:01.337Z,3.28
2022-09-16T10:13:32.006Z,3.28
2022-09-16T10:16:11.003Z,2.88
2022-09-16T10:18:39.751Z,3.35
2022-09-16T10:21:10.578Z,3.63
2022-09-16T10:23:39.487Z,3.33
2022-09-16T10:26:20.238Z,3.75
2022-09-16T10:28:56.629Z,3.28
2022-09-16T10:31:29.234Z,4.13
2022-09-16T10:34:01.836Z,3.13
2022-09-16T10:36:34.119Z,3.55
2022-09-16T10:39:05.359Z,3.80
2022-09-16T10:41:42.633Z,4.03
2022-09-16T10:44:18.585Z,3.60
2022-09-16T10:46:55.807Z,4.32
2022-09-16T10:49:29.901Z,4.03
2022-09-16T10:52:16.645Z,4.13
2022-09-16T10:54:45.633Z,4.65
2022-09-16T10:57:24.612Z,3.95
2022-09-16T11:00:12.285Z,3.80
2022-09-16T11:03:17.844Z,3.90
2022-09-16T11:05:56.838Z,3.97
2022-09-16T11:08:40.133Z,3.85
2022-09-16T11:11:15.019Z,3.65
2022-09-16T11:13:54.272Z,3.78
2022-09-16T11:16:46.471Z,4.13
2022-09-16T11:19:21.935Z,3.22
2022-09-16T11:22:14.568Z,4.18
2022-09-16T11:25:29.285Z,3.30
2022-09-16T11:28:15.230Z,3.05
2022-09-16T11:30:55.486Z,3.45
2022-09-16T11:33:30.229Z,3.55
2022-09-16T11:36:19.199Z,4.95
2022-09-16T11:38:56.802Z,4.32
2022-09-16T11:41:33.798Z,3.33
2022-09-16T11:44:19.395Z,3.30
2022-09-16T11:47:00.425Z,3.47
2022-09-16T11:49:58.338Z,3.42
2022-09-16T11:52:44.549Z,3.40
2022-09-16T11:55:38.026Z,3.90
2022-09-16T11:58:15.244Z,3.63
2022-09-16T12:00:44.109Z,2.80
2022-09-16T12:03:27.851Z,3.40
2022-09-16T12:06:03.790Z,3.45
2022-09-16T12:08:35.713Z,2.85
2022-09-16T12:11:15.796Z,2.67
2022-09-16T12:13:48.647Z,3.20
2022-09-16T12:16:20.237Z,3.03
2022-09-16T12:18:53.879Z,3.00
2022-09-16T12:21:26.365Z,2.88
2022-09-16T12:24:00.242Z,3.00
2022-09-16T12:26:33.485Z,3.78
2022-09-16T12:29:08.339Z,5.32
2022-09-16T12:31:40.863Z,4.88
2022-09-16T12:34:14.614Z,2.80
2022-09-16T12:36:48.500Z,3.50
2022-09-16T12:39:16.924Z,2.75
2022-09-16T12:42:18.676Z,3.00
2022-09-16T12:45:09.035Z,3.30
2022-09-16T12:48:16.489Z,2.88
2022-09-16T12:51:09.997Z,2.40
2022-09-16T12:54:17.459Z,2.45
2022-09-16T12:57:01.171Z,3.10
2022-09-16T12:59:54.209Z,2.30
2022-09-16T13:02:26.437Z,2.58
2022-09-16T13:04:56.818Z,2.55
2022-09-16T13:07:28.807Z,2.83
2022-09-16T13:10:03.934Z,2.75
2022-09-16T13:12:44.484Z,2.92
2022-09-16T13:15:26.461Z,3.85
2022-09-16T13:17:55.784Z,3.75
2022-09-16T13:20:32.324Z,2.85
2022-09-16T13:23:08.900Z,2.97
2022-09-16T13:25:49.323Z,2.63
2022-09-16T13:28:36.551Z,2.58
2022-09-16T13:31:34.122Z,2.63
2022-09-16T13:34:16.887Z,2.80
2022-09-16T13:36:45.131Z,3.03
2022-09-16T13:39:16.766Z,3.00
2022-09-16T13:41:47.180Z,2.65
2022-09-16T13:44:31.618Z,3.15
2022-09-16T13:47:17.208Z,3.22
2022-09-16T13:49:50.901Z,2.47
2022-09-16T13:52:22.492Z,2.78
2022-09-16T13:55:09.875Z,2.80
2022-09-16T13:57:49.418Z,3.53
2022-09-16T14:00:21.628Z,2.95
2022-09-16T14:03:13.519Z,2.30
2022-09-16T14:05:52.012Z,1.88
2022-09-16T14:08:28.556Z,3.20
2022-09-16T14:11:08.129Z,2.92
2022-09-16T14:13:41.193Z,2.80
2022-09-16T14:16:16.888Z,2.42
2022-09-16T14:18:54.367Z,3.10
2022-09-16T14:21:24.748Z,3.38
2022-09-16T14:26:25.437Z,2.72
2022-09-16T14:29:03.641Z,2.70
2022-09-16T14:31:34.424Z,2.75
2022-09-16T14:34:07.864Z,2.97
2022-09-16T14:36:40.499Z,2.67
2022-09-16T14:39:14.684Z,3.10
2022-09-16T14:41:48.264Z,3.40
2022-09-16T14:44:24.412Z,2.58
2022-09-16T14:47:04.699Z,2.40
2022-09-16T14:49:39.005Z,2.40
2022-09-16T14:52:19.849Z,2.58
2022-09-16T14:54:48.281Z,3.17
2022-09-16T14:57:22.842Z,2.97
2022-09-16T14:59:52.474Z,3.67
2022-09-16T15:02:25.264Z,3.28
2022-09-16T15:04:58.089Z,2.97
2022-09-16T15:07:32.617Z,2.95
2022-09-16T15:10:06.895Z,3.17
2022-09-16T15:12:40.261Z,2.78
2022-09-16T15:15:18.387Z,4.72
2022-09-16T15:17:56.470Z,4.10
2022-09-16T15:20:30.837Z,4.03
2022-09-16T15:22:59.569Z,3.67
2022-09-16T15:25:30.447Z,2.95
2022-09-16T15:28:07.655Z,3.20
2022-09-16T15:30:45.780Z,2.65
2022-09-16T15:33:29.829Z,3.40
2022-09-16T15:36:01.739Z,3.05
2022-09-16T15:38:31.401Z,3.08
2022-09-16T15:41:05.176Z,3.10
2022-09-16T15:43:39.921Z,3.70
2022-09-16T15:46:16.315Z,3.40
2022-09-16T15:48:46.935Z,3.25
2022-09-16T15:51:29.254Z,2.83
2022-09-16T15:54:01.591Z,4.40
2022-09-16T15:56:33.896Z,2.88
2022-09-16T15:59:08.090Z,3.28
2022-09-16T16:01:44.118Z,2.80
2022-09-16T16:04:14.695Z,3.58
2022-09-16T16:06:49.529Z,3.67
2022-09-16T16:09:41.516Z,2.90
2022-09-16T16:12:14.428Z,3.00
2022-09-16T16:14:46.680Z,3.47
2022-09-16T16:17:17.383Z,3.78
2022-09-16T16:19:47.596Z,3.30
2022-09-16T16:22:16.844Z,2.65
2022-09-16T16:24:46.036Z,2.65
2022-09-16T16:27:14.243Z,3.55
2022-09-16T16:29:43.997Z,2.92
2022-09-16T16:32:13.860Z,2.80
2022-09-16T16:34:44.244Z,3.10
2022-09-16T16:37:33.617Z,4.10
2022-09-16T16:40:02.495Z,3.33
2022-09-16T16:42:31.291Z,3.78
2022-09-16T16:45:01.098Z,2.80
2022-09-16T16:47:29.394Z,3.55
2022-09-16T16:49:58.015Z,2.80
2022-09-16T16:52:26.193Z,3.80
2022-09-16T16:54:54.686Z,3.40
2022-09-16T16:57:22.885Z,3.38
2022-09-16T16:59:51.981Z,3.50
2022-09-16T17:02:21.740Z,3.88
2022-09-16T17:04:49.985Z,3.75
2022-09-16T17:07:27.332Z,3.55
2022-09-16T17:09:57.467Z,3.70
2022-09-16T17:12:26.162Z,4.13
2022-09-16T17:14:54.559Z,4.03
2022-09-16T17:17:28.898Z,4.30
2022-09-16T17:19:59.571Z,4.80
2022-09-16T17:22:27.859Z,4.32
2022-09-16T17:24:56.507Z,4.43
2022-09-16T17:27:27.123Z,4.18
2022-09-16T17:29:55.488Z,3.88
2022-09-16T17:32:25.282Z,3.20
2022-09-16T17:34:53.625Z,3.20
2022-09-16T17:37:22.051Z,3.67
2022-09-16T17:39:50.447Z,3.90
2022-09-16T17:42:18.857Z,3.60
2022-09-16T17:44:47.192Z,3.13
2022-09-16T17:47:15.507Z,2.60
2022-09-16T17:49:45.204Z,2.90
2022-09-16T17:52:13.485Z,2.67
2022-09-16T17:54:42.128Z,2.80
2022-09-16T17:57:10.357Z,2.00
2022-09-16T17:59:38.610Z,2.67
2022-09-16T18:02:07.713Z,2.00
2022-09-16T18:04:35.920Z,2.70
2022-09-16T18:07:07.272Z,1.95
2022-09-16T18:09:35.477Z,1.88
2022-09-16T18:12:03.996Z,2.15
2022-09-16T18:14:32.225Z,1.98
2022-09-16T18:17:00.944Z,2.97
2022-09-16T18:19:29.328Z,3.05
2022-09-16T18:21:57.512Z,3.20
2022-09-16T18:24:27.360Z,3.70
2022-09-16T18:26:55.637Z,3.58
2022-09-16T18:29:23.885Z,3.08
2022-09-16T18:31:54.274Z,3.72
2022-09-16T18:34:22.577Z,3.58
2022-09-16T18:36:50.865Z,3.13
2022-09-16T18:39:18.997Z,3.38
2022-09-16T18:41:48.761Z,3.88
2022-09-16T18:44:19.785Z,3.28
2022-09-16T18:46:48.648Z,3.70
2022-09-16T18:49:18.403Z,2.72
2022-09-16T18:51:51.165Z,2.60
2022-09-16T18:54:28.227Z,2.30
2022-09-16T18:56:59.965Z,2.47
2022-09-16T18:59:30.845Z,2.10
2022-09-16T19:02:00.762Z,2.05
2022-09-16T19:04:30.791Z,2.55
2022-09-16T19:07:07.696Z,2.70
2022-09-16T19:09:37.606Z,3.10
2022-09-16T19:12:07.805Z,2.95
2022-09-16T19:14:36.196Z,2.90
2022-09-16T19:17:05.348Z,2.58
2022-09-16T19:19:34.354Z,3.05
2022-09-16T19:22:06.163Z,2.40
2022-09-16T19:24:34.996Z,2.30
2022-09-16T19:27:03.255Z,2.92
2022-09-16T19:29:33.413Z,2.83
2022-09-16T19:32:01.815Z,3.13
2022-09-16T19:34:30.293Z,2.80
2022-09-16T19:36:58.576Z,2.35
2022-09-16T19:39:27.232Z,2.72
2022-09-16T19:41:55.535Z,2.25
2022-09-16T19:44:23.845Z,2.63
2022-09-16T19:46:53.571Z,3.03
2022-09-16T19:49:23.031Z,2.88
2022-09-16T19:51:52.619Z,2.17
2022-09-16T19:54:24.189Z,2.67
2022-09-16T19:56:52.621Z,2.88
2022-09-16T19:59:21.196Z,2.42
2022-09-16T20:01:49.872Z,2.63
2022-09-16T20:04:21.125Z,2.30
2022-09-16T20:06:50.348Z,1.75
2022-09-16T20:09:19.387Z,2.67
2022-09-16T20:11:48.884Z,2.17
2022-09-16T20:14:19.507Z,2.20
2022-09-16T20:16:48.393Z,2.65
2022-09-16T20:19:18.381Z,2.28
2022-09-16T20:21:48.198Z,1.85
2022-09-16T20:24:18.654Z,2.20
2022-09-16T20:26:47.311Z,2.20
2022-09-16T20:29:17.354Z,3.03
2022-09-16T20:31:46.534Z,2.15
2022-09-16T20:34:16.491Z,2.13
2022-09-16T20:36:46.049Z,2.03
2022-09-16T20:39:16.042Z,2.47
2022-09-16T20:41:45.717Z,2.30
2022-09-16T20:44:15.847Z,2.53
2022-09-16T20:46:44.831Z,2.80
2022-09-16T20:49:16.601Z,2.55
2022-09-16T20:51:45.724Z,2.47
2022-09-16T20:54:16.816Z,1.92
2022-09-16T20:56:47.068Z,2.15
2022-09-16T20:59:17.329Z,2.88
2022-09-16T21:01:46.075Z,2.75
2022-09-16T21:04:16.198Z,2.33
2022-09-16T21:06:45.557Z,2.42
2022-09-16T21:09:18.424Z,2.28
2022-09-16T21:11:46.785Z,2.03
2022-09-16T21:14:16.728Z,2.30
2022-09-16T21:16:46.953Z,2.65
2022-09-16T21:19:15.535Z,2.70
2022-09-16T21:21:46.457Z,2.67
2022-09-16T21:24:17.276Z,2.53
2022-09-16T21:26:46.429Z,2.40
2022-09-16T21:29:17.636Z,2.58
2022-09-16T21:31:46.104Z,2.50
2022-09-16T21:34:16.828Z,2.08
2022-09-16T21:36:45.479Z,2.33
2022-09-16T21:39:14.269Z,1.77
2022-09-16T21:41:44.458Z,2.45
2022-09-16T21:44:13.284Z,2.25
2022-09-16T21:46:43.323Z,2.38
2022-09-16T21:49:19.313Z,2.65
2022-09-16T21:51:47.637Z,1.95
2022-09-16T21:54:20.211Z,2.05
2022-09-16T21:56:51.534Z,2.17
2022-09-16T21:59:20.840Z,2.40
2022-09-16T22:01:50.413Z,2.42
2022-09-16T22:04:20.270Z,2.33
2022-09-16T22:06:50.035Z,2.10
2022-09-16T22:09:18.860Z,2.22
2022-09-16T22:11:47.353Z,2.35
2022-09-16T22:14:17.484Z,1.85
2022-09-16T22:16:45.742Z,1.55
2022-09-16T22:19:18.930Z,2.25
2022-09-16T22:21:48.743Z,2.33
2022-09-16T22:24:20.369Z,1.90
2022-09-16T22:26:49.417Z,2.05
2022-09-16T22:29:19.208Z,1.33
2022-09-16T22:31:47.590Z,1.60
2022-09-16T22:34:15.929Z,1.90
2022-09-16T22:36:44.259Z,2.00
2022-09-16T22:39:14.709Z,2.08
2022-09-16T22:41:43.342Z,2.38
2022-09-16T22:44:11.992Z,1.52
2022-09-16T22:46:44.073Z,2.20
2022-09-16T22:49:13.001Z,1.90
2022-09-16T22:51:41.287Z,1.92
2022-09-16T22:54:10.414Z,1.98
2022-09-16T22:56:38.774Z,1.73
2022-09-16T22:59:08.542Z,2.20
2022-09-16T23:01:39.836Z,2.08
2022-09-16T23:04:11.304Z,2.05
2022-09-16T23:06:41.190Z,2.13
2022-09-16T23:09:10.369Z,1.88
2022-09-16T23:11:38.747Z,2.08
2022-09-16T23:14:07.524Z,2.05
2022-09-16T23:16:38.385Z,2.03
2022-09-16T23:19:11.297Z,2.08
2022-09-16T23:21:40.221Z,2.17
2022-09-16T23:24:10.408Z,2.05
2022-09-16T23:26:40.017Z,2.30
2022-09-16T23:29:10.737Z,2.25
2022-09-16T23:31:41.001Z,2.20
2022-09-16T23:34:14.657Z,2.00
2022-09-16T23:36:43.299Z,2.60
2022-09-16T23:39:15.063Z,2.22
2022-09-16T23:41:45.161Z,2.72
2022-09-16T23:44:15.083Z,1.92
2022-09-16T23:46:43.589Z,2.83
2022-09-16T23:49:13.614Z,2.55
2022-09-16T23:51:41.854Z,2.92
2022-09-16T23:54:10.104Z,2.40
2022-09-16T23:56:38.225Z,1.90
2022-09-16T23:59:06.469Z,2.25
